Auburn, CA

6:44 AM PDT on August 21, 2014 (GMT -0700)
Grass Valley | Change Station
CLOSE
Current Station
Airport
Location: Grass Valley,
Elevation: 3153 ft
Nearby Weather Stations

Elev 3153 ft 39.22 °N, 121.00 °W | Updated 4 minutes ago

Clear
Clear
66 °F
Feels Like 66 °F
N
0
Wind Variable Wind from North

Today
High -- | Low -- °F
--% Chance of Precip.
Yesterday
High -- | Low -- °F
Precip. -- in
6:23 AM 7:51 PM
Waning Crescent, 14% visible
Pressure 30.01 in
Visibility 10.0 miles
Clouds Clear
Dew Point 43 °F
Humidity 43%
Rainfall 0.00 in
Snow Depth Not available.
UV 0 out of 12
Pollen 6.60 out of 12
Ozone Good
Flu Activity Not available.
METAR KGOO 211340Z AUTO 00000KT 10SM CLR 19/06 A3001 RMK AO1

More Conditions Fewer Conditions

Pressure 30.01 in
Visibility 10.0 miles
Clouds Clear
Dew Point 43 °F
Humidity 43%
Rainfall 0.00 in
Snow Depth Not available.
UV 0 out of 12
Pollen 6.60 out of 12
Ozone Good
Flu Activity Not available.
METAR KGOO 211340Z AUTO 00000KT 10SM CLR 19/06 A3001 RMK AO1

More Conditions Fewer Conditions

10-Day Weather Forecast

Almanac

Astronomy

Aug. 21, 2014 Rise Set
Actual Time 6:23 AM PDT 7:51 PM PDT
Civil Twilight 5:55 AM PDT 8:18 PM PDT
Nautical Twilight 5:21 AM PDT 8:52 PM PDT
Astronomical Twilight 4:46 AM PDT 9:28 PM PDT
Moon 2:59 AM PDT 5:22 PM PDT
Length of Visible Light 14h 23m
Length of Day
13h 27m
Tomorrow will be 2m 20s shorter.
Waning Crescent, 14% of the Moon is Illuminated
Today
Waning Crescent
Aug 25
New
Sep 2
First Quarter
Sep 8
Full
Sep 15
Last Quarter

Today's Extremes

State Highs State Lows

Community

WunderPhotos

Upload Photos

1,745,918 photos uploaded!

WunderBlogs® & News

Nearby

Air Quality

  Air Quality AQ Index Pollutant
Yesterday Good
OZONE
Current Good
OZONE
Thursday Moderate
OZONE
Friday Moderate
OZONE
Saturday Moderate
OZONE

Snow Depth

Station Depth Elevation
CSS Lab 1 in 6900 ft
Tahoe City Cross 0 in 6750 ft
Independence Camp 0 in 7000 ft
Independence Creek 0 in 6500 ft
Echo Peak 1 in 7800 ft

Earthquake Activity

City Distance Mag. Time & Date
No recent earthquake activity has been reported nearby.
Minimum magnitude displayed is 2.5.

Coastal Water Temperatures

Place Temperature
No Stations Reporting

Nearby Weather Stations